createdAt,value
2019-01-06T00:00:24.386Z,45.13
2019-01-06T00:01:24.640Z,45.17
2019-01-06T00:02:24.762Z,45.13
2019-01-06T00:03:24.390Z,45.15
2019-01-06T00:04:24.983Z,45.15
2019-01-06T00:05:24.514Z,45.16
2019-01-06T00:06:24.418Z,45.17
2019-01-06T00:07:24.316Z,45.18
2019-01-06T00:08:24.372Z,45.18
2019-01-06T00:09:24.613Z,45.17
2019-01-06T00:10:24.793Z,45.14
2019-01-06T00:11:24.471Z,45.17
2019-01-06T00:12:24.500Z,45.13
2019-01-06T00:13:24.517Z,45.18
2019-01-06T00:14:24.445Z,45.17
2019-01-06T00:15:24.309Z,45.19
2019-01-06T00:16:24.883Z,45.17
2019-01-06T00:17:24.514Z,45.24
2019-01-06T00:18:24.447Z,45.19
2019-01-06T00:19:24.286Z,45.19
2019-01-06T00:20:24.557Z,45.19
2019-01-06T00:21:24.469Z,45.18
2019-01-06T00:22:24.243Z,45.19
2019-01-06T00:23:24.424Z,45.19
2019-01-06T00:24:24.189Z,45.22
2019-01-06T00:25:24.373Z,45.19
2019-01-06T00:26:24.235Z,45.19
2019-01-06T00:27:24.415Z,45.19
2019-01-06T00:28:24.804Z,45.18
2019-01-06T00:29:24.620Z,45.19
2019-01-06T00:30:24.345Z,45.22
2019-01-06T00:31:24.449Z,45.19
2019-01-06T00:32:24.592Z,45.16
2019-01-06T00:33:24.526Z,45.21
2019-01-06T00:34:24.423Z,45.24
2019-01-06T00:35:24.330Z,45.21
2019-01-06T00:36:24.301Z,45.23
2019-01-06T00:37:24.292Z,45.23
2019-01-06T00:38:24.415Z,45.24
2019-01-06T00:39:24.399Z,45.18
2019-01-06T00:40:24.824Z,45.24
2019-01-06T00:41:24.455Z,45.24
2019-01-06T00:42:24.434Z,45.21
2019-01-06T00:43:24.624Z,45.19
2019-01-06T00:44:25.369Z,45.21
2019-01-06T00:45:24.945Z,45.22
2019-01-06T00:46:24.309Z,45.2
2019-01-06T00:47:24.927Z,45.23
2019-01-06T00:48:24.187Z,45.24
2019-01-06T00:49:24.492Z,45.2
2019-01-06T00:50:24.220Z,45.19
2019-01-06T00:51:24.735Z,45.22
2019-01-06T00:52:24.330Z,45.2
2019-01-06T00:53:24.314Z,45.22
2019-01-06T00:54:24.451Z,45.22
2019-01-06T00:55:24.424Z,45.19
2019-01-06T00:56:24.276Z,45.24
2019-01-06T00:57:24.622Z,45.24
2019-01-06T00:58:24.421Z,45.25
2019-01-06T00:59:24.688Z,45.25
2019-01-06T01:00:24.199Z,45.24
2019-01-06T01:01:24.389Z,45.28
2019-01-06T01:02:24.862Z,45.25
2019-01-06T01:03:24.476Z,45.26
2019-01-06T01:04:24.787Z,45.27
2019-01-06T01:05:24.296Z,45.26
2019-01-06T01:06:24.723Z,45.23
2019-01-06T01:07:24.483Z,45.23
2019-01-06T01:08:24.703Z,45.25
2019-01-06T01:09:24.376Z,45.29
2019-01-06T01:10:24.714Z,45.26
2019-01-06T01:11:24.725Z,45.26
2019-01-06T01:12:24.297Z,45.23
2019-01-06T01:13:25.272Z,45.24
2019-01-06T01:14:24.323Z,45.27
2019-01-06T01:15:24.671Z,45.24
2019-01-06T01:16:24.376Z,45.23
2019-01-06T01:17:24.432Z,45.27
2019-01-06T01:18:24.387Z,45.24
2019-01-06T01:19:24.125Z,45.27
2019-01-06T01:20:24.375Z,45.25
2019-01-06T01:21:24.372Z,45.28
2019-01-06T01:22:24.235Z,45.27
2019-01-06T01:23:24.581Z,45.23
2019-01-06T01:24:24.405Z,45.26
2019-01-06T01:25:24.590Z,45.26
2019-01-06T01:26:24.236Z,45.27
2019-01-06T01:27:24.470Z,45.29
2019-01-06T01:28:24.575Z,45.29
2019-01-06T01:29:24.284Z,45.28
2019-01-06T01:30:24.313Z,45.29
2019-01-06T01:31:24.212Z,45.28
2019-01-06T01:32:24.449Z,45.27
2019-01-06T01:33:24.527Z,45.34
2019-01-06T01:34:24.241Z,45.31
2019-01-06T01:35:24.592Z,45.28
2019-01-06T01:36:24.537Z,45.34
2019-01-06T01:37:24.722Z,45.29
2019-01-06T01:38:24.505Z,45.34
2019-01-06T01:39:24.763Z,45.28
2019-01-06T01:40:25.286Z,45.35
2019-01-06T01:41:24.174Z,45.29
2019-01-06T01:42:24.699Z,45.28
2019-01-06T01:43:24.253Z,45.28
2019-01-06T01:44:25.282Z,45.28
2019-01-06T01:45:24.344Z,45.27
2019-01-06T01:46:24.306Z,45.33
2019-01-06T01:47:24.508Z,45.34
2019-01-06T01:48:24.650Z,45.3
2019-01-06T01:49:24.380Z,45.36
2019-01-06T01:50:24.386Z,45.33
2019-01-06T01:51:24.277Z,45.33
2019-01-06T01:52:24.416Z,45.33
2019-01-06T01:53:24.180Z,45.34
2019-01-06T01:54:24.752Z,45.36
2019-01-06T01:55:24.951Z,45.33
2019-01-06T01:56:24.328Z,45.38
2019-01-06T01:57:24.811Z,45.33
2019-01-06T01:58:24.301Z,45.38
2019-01-06T01:59:24.382Z,45.38
2019-01-06T02:00:24.917Z,45.37
2019-01-06T02:01:24.498Z,45.37
2019-01-06T02:02:24.420Z,45.38
2019-01-06T02:03:24.636Z,45.32
2019-01-06T02:04:24.848Z,45.39
2019-01-06T02:05:25.269Z,45.36
2019-01-06T02:06:24.423Z,45.39
2019-01-06T02:07:24.211Z,45.44
2019-01-06T02:08:24.644Z,45.36
2019-01-06T02:09:24.103Z,45.38
2019-01-06T02:10:24.723Z,45.39
2019-01-06T02:11:24.389Z,45.38
2019-01-06T02:12:24.309Z,45.4
2019-01-06T02:13:24.812Z,45.38
2019-01-06T02:14:24.470Z,45.4
2019-01-06T02:15:24.410Z,45.43
2019-01-06T02:16:24.398Z,45.38
2019-01-06T02:17:24.323Z,45.45
2019-01-06T02:18:24.638Z,45.44
2019-01-06T02:19:24.306Z,45.4
2019-01-06T02:20:24.197Z,45.41
2019-01-06T02:21:24.104Z,45.42
2019-01-06T02:22:24.262Z,45.46
2019-01-06T02:23:25.045Z,45.42
2019-01-06T02:24:25.125Z,45.46
2019-01-06T02:25:24.723Z,45.43
2019-01-06T02:26:24.629Z,45.42
2019-01-06T02:27:24.589Z,45.46
2019-01-06T02:28:24.548Z,45.44
2019-01-06T02:29:25.190Z,45.47
2019-01-06T02:30:24.807Z,45.46
2019-01-06T02:31:24.272Z,45.46
2019-01-06T02:32:24.323Z,45.47
2019-01-06T02:33:24.573Z,45.43
2019-01-06T02:34:24.399Z,45.44
2019-01-06T02:35:24.596Z,45.42
2019-01-06T02:36:24.766Z,45.42
2019-01-06T02:37:24.316Z,45.44
2019-01-06T02:38:24.378Z,45.42
2019-01-06T02:39:24.593Z,45.44
2019-01-06T02:40:24.288Z,45.47
2019-01-06T02:41:24.784Z,45.41
2019-01-06T02:42:24.436Z,45.43
2019-01-06T02:43:24.766Z,45.44
2019-01-06T02:44:24.410Z,45.49
2019-01-06T02:45:24.125Z,45.41
2019-01-06T02:46:24.394Z,45.44
2019-01-06T02:47:25.529Z,45.43
2019-01-06T02:48:24.540Z,45.41
2019-01-06T02:49:24.344Z,45.44
2019-01-06T02:50:24.787Z,45.46
2019-01-06T02:51:24.333Z,45.44
2019-01-06T02:52:24.249Z,45.43
2019-01-06T02:53:24.425Z,45.44
2019-01-06T02:54:24.307Z,45.44
2019-01-06T02:55:24.181Z,45.44
2019-01-06T02:56:24.579Z,45.45
2019-01-06T02:57:24.274Z,45.43
2019-01-06T02:58:24.446Z,45.43
2019-01-06T02:59:24.573Z,45.41
2019-01-06T03:00:24.152Z,45.39
2019-01-06T03:01:24.566Z,45.44
2019-01-06T03:02:24.414Z,45.44
2019-01-06T03:03:24.268Z,45.45
2019-01-06T03:04:24.545Z,45.46
2019-01-06T03:05:24.214Z,45.49
2019-01-06T03:06:24.403Z,45.47
2019-01-06T03:07:24.645Z,45.53
2019-01-06T03:08:24.793Z,45.45
2019-01-06T03:09:24.156Z,45.45
2019-01-06T03:10:24.455Z,45.52
2019-01-06T03:11:24.739Z,45.48
2019-01-06T03:12:24.262Z,45.49
2019-01-06T03:13:24.341Z,45.46
2019-01-06T03:14:24.307Z,45.48
2019-01-06T03:15:24.570Z,45.47
2019-01-06T03:16:24.823Z,45.43
2019-01-06T03:17:24.523Z,45.48
2019-01-06T03:18:24.297Z,45.49
2019-01-06T03:19:24.089Z,45.49
2019-01-06T03:20:24.671Z,45.44
2019-01-06T03:21:24.587Z,45.46
2019-01-06T03:22:24.801Z,45.48
2019-01-06T03:23:24.792Z,45.5
2019-01-06T03:24:24.656Z,45.49
2019-01-06T03:25:24.266Z,45.51
2019-01-06T03:26:24.730Z,45.51
2019-01-06T03:27:25.022Z,45.5
2019-01-06T03:28:24.494Z,45.5
2019-01-06T03:29:24.843Z,45.53
2019-01-06T03:30:24.862Z,45.49
2019-01-06T03:31:24.687Z,45.48
2019-01-06T03:32:24.816Z,45.47
2019-01-06T03:33:24.235Z,45.51
2019-01-06T03:34:24.318Z,45.51
2019-01-06T03:35:24.751Z,45.52
2019-01-06T03:36:24.184Z,45.5
2019-01-06T03:37:24.716Z,45.5
2019-01-06T03:38:24.210Z,45.52
2019-01-06T03:39:24.930Z,45.51
2019-01-06T03:40:24.563Z,45.52
2019-01-06T03:41:24.222Z,45.51
2019-01-06T03:42:24.403Z,45.49
2019-01-06T03:43:24.138Z,45.51
2019-01-06T03:44:24.737Z,45.52
2019-01-06T03:45:24.248Z,45.49
2019-01-06T03:46:24.480Z,45.52
2019-01-06T03:47:24.635Z,45.53
2019-01-06T03:48:24.488Z,45.5
2019-01-06T03:49:25.148Z,45.49
2019-01-06T03:50:24.358Z,45.52
2019-01-06T03:51:24.765Z,45.53
2019-01-06T03:52:24.342Z,45.51
2019-01-06T03:53:24.163Z,45.52
2019-01-06T03:54:25.074Z,45.52
2019-01-06T03:55:24.592Z,45.54
2019-01-06T03:56:25.205Z,45.53
2019-01-06T03:57:24.438Z,45.54
2019-01-06T03:58:25.098Z,45.52
2019-01-06T03:59:24.089Z,45.56
2019-01-06T04:00:24.252Z,45.56
2019-01-06T04:01:24.326Z,45.55
2019-01-06T04:02:24.205Z,45.56
2019-01-06T04:03:24.368Z,45.56
2019-01-06T04:04:24.414Z,45.55
2019-01-06T04:05:24.704Z,45.59
2019-01-06T04:06:24.571Z,45.51
2019-01-06T04:07:24.262Z,45.54
2019-01-06T04:08:24.249Z,45.54
2019-01-06T04:09:24.562Z,45.51
2019-01-06T04:10:24.813Z,45.52
2019-01-06T04:11:24.480Z,45.56
2019-01-06T04:12:24.549Z,45.56
2019-01-06T04:13:24.433Z,45.57
2019-01-06T04:14:25.043Z,45.59
2019-01-06T04:15:24.692Z,45.57
2019-01-06T04:16:24.788Z,45.59
2019-01-06T04:17:24.269Z,45.57
2019-01-06T04:18:24.698Z,45.59
2019-01-06T04:19:24.366Z,45.62
2019-01-06T04:20:24.426Z,45.6
2019-01-06T04:21:24.122Z,45.59
2019-01-06T04:22:24.695Z,45.59
2019-01-06T04:23:24.421Z,45.58
2019-01-06T04:24:24.443Z,45.6
2019-01-06T04:25:24.684Z,45.6
2019-01-06T04:26:24.356Z,45.58
2019-01-06T04:27:24.390Z,45.6
2019-01-06T04:28:24.546Z,45.59
2019-01-06T04:29:24.540Z,45.56
2019-01-06T04:30:24.375Z,45.59
2019-01-06T04:31:24.525Z,45.62
2019-01-06T04:32:24.334Z,45.56
2019-01-06T04:33:24.427Z,45.63
2019-01-06T04:34:24.751Z,45.58
2019-01-06T04:35:24.649Z,45.6
2019-01-06T04:36:24.231Z,45.62
2019-01-06T04:37:24.213Z,45.6
2019-01-06T04:38:24.173Z,45.58
2019-01-06T04:39:24.345Z,45.6
2019-01-06T04:40:24.738Z,45.6
2019-01-06T04:41:24.256Z,45.55
2019-01-06T04:42:24.681Z,45.56
2019-01-06T04:43:24.322Z,45.59
2019-01-06T04:44:24.347Z,45.54
2019-01-06T04:45:24.330Z,45.51
2019-01-06T04:46:24.400Z,45.53
2019-01-06T04:47:24.322Z,45.59
2019-01-06T04:48:24.594Z,45.58
2019-01-06T04:49:24.313Z,45.57
2019-01-06T04:50:24.193Z,45.57
2019-01-06T04:51:24.314Z,45.59
2019-01-06T04:52:24.580Z,45.58
2019-01-06T04:53:24.265Z,45.6
2019-01-06T04:54:24.637Z,45.48
2019-01-06T04:55:24.237Z,45.59
2019-01-06T04:56:24.409Z,45.53
2019-01-06T04:57:24.142Z,45.5
2019-01-06T04:58:24.260Z,45.52
2019-01-06T04:59:25.315Z,45.46
2019-01-06T05:00:24.790Z,45.4
2019-01-06T05:01:24.753Z,45.37
2019-01-06T05:02:24.497Z,45.3
2019-01-06T05:03:24.274Z,45.27
2019-01-06T05:04:25.085Z,45.28
2019-01-06T05:05:24.495Z,45.25
2019-01-06T05:06:24.818Z,45.18
2019-01-06T05:07:24.676Z,45.16
2019-01-06T05:08:24.306Z,45.15
2019-01-06T05:09:24.201Z,45.07
2019-01-06T05:10:24.347Z,45.09
2019-01-06T05:11:25.314Z,45.05
2019-01-06T05:12:24.577Z,45.06
2019-01-06T05:13:24.234Z,45.02
2019-01-06T05:14:24.218Z,44.98
2019-01-06T05:15:24.185Z,44.99
2019-01-06T05:16:24.142Z,44.99
2019-01-06T05:17:24.374Z,44.92
2019-01-06T05:18:24.675Z,44.9
2019-01-06T05:19:24.091Z,44.88
2019-01-06T05:20:24.298Z,44.9
2019-01-06T05:21:24.224Z,44.88
2019-01-06T05:22:24.302Z,45.02
2019-01-06T05:23:25.079Z,44.89
2019-01-06T05:24:24.157Z,44.84
2019-01-06T05:25:24.523Z,44.87
2019-01-06T05:26:24.968Z,44.94
2019-01-06T05:27:24.240Z,44.9
2019-01-06T05:28:24.766Z,44.91
2019-01-06T05:29:24.315Z,44.83
2019-01-06T05:30:24.191Z,44.85
2019-01-06T05:31:24.216Z,44.91
2019-01-06T05:32:25.132Z,44.83
2019-01-06T05:33:24.483Z,44.89
2019-01-06T05:34:25.173Z,44.84
2019-01-06T05:35:24.717Z,44.86
2019-01-06T05:36:24.244Z,45.01
2019-01-06T05:37:24.732Z,44.95
2019-01-06T05:38:24.565Z,44.89
2019-01-06T05:39:24.162Z,44.83
2019-01-06T05:40:24.573Z,44.94
2019-01-06T05:41:24.268Z,44.86
2019-01-06T05:42:24.421Z,44.83
2019-01-06T05:43:24.750Z,44.83
2019-01-06T05:44:24.657Z,44.85
2019-01-06T05:45:24.075Z,44.84
2019-01-06T05:46:24.445Z,44.89
2019-01-06T05:47:25.283Z,44.84
2019-01-06T05:48:24.216Z,44.82
2019-01-06T05:49:24.466Z,44.83
2019-01-06T05:50:24.598Z,44.89
2019-01-06T05:51:24.193Z,44.95
2019-01-06T05:52:24.092Z,44.89
2019-01-06T05:53:24.157Z,44.85
2019-01-06T05:54:24.309Z,44.94
2019-01-06T05:55:24.212Z,44.9
2019-01-06T05:56:24.484Z,44.98
2019-01-06T05:57:24.107Z,44.85
2019-01-06T05:58:24.602Z,44.85
2019-01-06T05:59:24.270Z,44.89
2019-01-06T06:00:24.333Z,44.9
2019-01-06T06:01:24.356Z,44.89
2019-01-06T06:02:24.250Z,44.88
2019-01-06T06:03:24.350Z,44.91
2019-01-06T06:04:24.247Z,44.94
2019-01-06T06:05:24.104Z,44.92
2019-01-06T06:06:24.354Z,44.89
2019-01-06T06:07:24.031Z,44.87
2019-01-06T06:08:24.255Z,44.9
2019-01-06T06:09:24.253Z,44.85
2019-01-06T06:10:24.191Z,44.87
2019-01-06T06:11:24.494Z,44.87
2019-01-06T06:12:24.588Z,44.92
2019-01-06T06:13:24.449Z,44.86
2019-01-06T06:14:24.441Z,44.96
2019-01-06T06:15:24.436Z,44.96
2019-01-06T06:16:24.672Z,44.9
2019-01-06T06:17:24.085Z,44.92
2019-01-06T06:18:24.254Z,44.95
2019-01-06T06:19:24.075Z,44.98
2019-01-06T06:20:24.370Z,44.95
2019-01-06T06:21:24.279Z,44.96
2019-01-06T06:22:24.389Z,44.88
2019-01-06T06:23:24.294Z,44.86
2019-01-06T06:24:24.046Z,44.84
2019-01-06T06:25:24.155Z,44.88
2019-01-06T06:26:24.362Z,44.84
2019-01-06T06:27:24.105Z,44.86
2019-01-06T06:28:24.295Z,44.93
2019-01-06T06:29:24.290Z,44.88
2019-01-06T06:30:24.353Z,44.88
2019-01-06T06:31:24.467Z,44.9
2019-01-06T06:32:24.153Z,44.83
2019-01-06T06:33:24.344Z,44.82
2019-01-06T06:34:24.053Z,44.88
2019-01-06T06:35:24.285Z,44.84
2019-01-06T06:36:24.131Z,44.86
2019-01-06T06:37:24.283Z,44.82
2019-01-06T06:38:24.446Z,44.87
2019-01-06T06:39:24.162Z,44.83
2019-01-06T06:40:24.479Z,44.82
2019-01-06T06:41:24.318Z,44.82
2019-01-06T06:42:24.422Z,44.83
2019-01-06T06:43:24.296Z,44.82
2019-01-06T06:44:24.473Z,44.78
2019-01-06T06:45:24.933Z,44.8
2019-01-06T06:46:24.639Z,44.81
2019-01-06T06:47:25.088Z,44.81
2019-01-06T06:48:24.464Z,44.78
2019-01-06T06:49:24.459Z,44.77
2019-01-06T06:50:24.306Z,44.79
2019-01-06T06:51:24.057Z,44.69
2019-01-06T06:52:24.506Z,44.74
2019-01-06T06:53:24.561Z,44.73
2019-01-06T06:54:24.433Z,44.75
2019-01-06T06:55:24.501Z,44.75
2019-01-06T06:56:24.266Z,44.73
2019-01-06T06:57:24.172Z,44.81
2019-01-06T06:58:24.225Z,44.77
2019-01-06T06:59:24.249Z,44.73
2019-01-06T07:00:24.382Z,44.73
2019-01-06T07:01:24.373Z,44.72
2019-01-06T07:02:25.208Z,44.75
2019-01-06T07:03:24.297Z,44.71
2019-01-06T07:04:24.148Z,44.75
2019-01-06T07:05:24.117Z,44.71
2019-01-06T07:06:24.577Z,44.71
2019-01-06T07:07:24.006Z,44.73
2019-01-06T07:08:24.496Z,44.68
2019-01-06T07:09:24.631Z,44.73
2019-01-06T07:10:24.419Z,44.7
2019-01-06T07:11:24.313Z,44.72
2019-01-06T07:12:23.983Z,44.73
2019-01-06T07:13:24.329Z,44.69
2019-01-06T07:14:24.297Z,44.68
2019-01-06T07:15:24.328Z,44.67
2019-01-06T07:16:24.317Z,44.72
2019-01-06T07:17:24.224Z,44.66
2019-01-06T07:18:24.282Z,44.61
2019-01-06T07:19:24.290Z,44.7
2019-01-06T07:20:24.236Z,44.63
2019-01-06T07:21:24.167Z,44.69
2019-01-06T07:22:24.166Z,44.68
2019-01-06T07:23:24.193Z,44.63
2019-01-06T07:24:24.603Z,44.65
2019-01-06T07:25:24.049Z,44.65
2019-01-06T07:26:24.458Z,44.63
2019-01-06T07:27:24.380Z,44.63
2019-01-06T07:28:25.097Z,44.67
2019-01-06T07:29:24.014Z,44.67
2019-01-06T07:30:24.131Z,44.64
2019-01-06T07:31:24.554Z,44.62
2019-01-06T07:32:24.202Z,44.66
2019-01-06T07:33:24.482Z,44.64
2019-01-06T07:34:24.192Z,44.61
2019-01-06T07:35:24.516Z,44.6
2019-01-06T07:36:24.743Z,44.65
2019-01-06T07:37:24.237Z,44.7
2019-01-06T07:38:24.247Z,44.61
2019-01-06T07:39:24.482Z,44.6
2019-01-06T07:40:24.364Z,44.63
2019-01-06T07:41:24.329Z,44.63
2019-01-06T07:42:24.373Z,44.63
2019-01-06T07:43:24.623Z,44.63
2019-01-06T07:44:24.301Z,44.65
2019-01-06T07:45:24.473Z,44.64
2019-01-06T07:46:24.083Z,44.63
2019-01-06T07:47:24.260Z,44.61
2019-01-06T07:48:24.178Z,44.57
2019-01-06T07:49:24.083Z,44.59
2019-01-06T07:50:24.602Z,44.57
2019-01-06T07:51:24.147Z,44.57
2019-01-06T07:52:24.208Z,44.57
2019-01-06T07:53:24.800Z,44.57
2019-01-06T07:54:24.093Z,44.53
2019-01-06T07:55:24.321Z,44.55
2019-01-06T07:56:24.121Z,44.55
2019-01-06T07:57:24.185Z,44.53
2019-01-06T07:58:24.384Z,44.54
2019-01-06T07:59:24.038Z,44.51
2019-01-06T08:00:24.273Z,44.58
2019-01-06T08:01:24.608Z,44.49
2019-01-06T08:02:24.397Z,44.53
2019-01-06T08:03:24.314Z,44.55
2019-01-06T08:04:24.549Z,44.54
2019-01-06T08:05:24.152Z,44.48
2019-01-06T08:06:24.191Z,44.52
2019-01-06T08:07:24.328Z,44.53
2019-01-06T08:08:24.194Z,44.53
2019-01-06T08:09:24.113Z,44.53
2019-01-06T08:10:24.294Z,44.51
2019-01-06T08:11:24.207Z,44.48
2019-01-06T08:12:24.251Z,44.49
2019-01-06T08:13:24.068Z,44.51
2019-01-06T08:14:24.288Z,44.48
2019-01-06T08:15:24.221Z,44.48
2019-01-06T08:16:24.214Z,44.51
2019-01-06T08:17:24.402Z,44.48
2019-01-06T08:18:24.097Z,44.5
2019-01-06T08:19:24.468Z,44.48
2019-01-06T08:20:24.108Z,44.46
2019-01-06T08:21:24.321Z,44.48
2019-01-06T08:22:24.220Z,44.44
2019-01-06T08:23:24.195Z,44.47
2019-01-06T08:24:24.169Z,44.44
2019-01-06T08:25:24.080Z,44.48
2019-01-06T08:26:24.380Z,44.47
2019-01-06T08:27:23.953Z,44.43
2019-01-06T08:28:24.780Z,44.44
2019-01-06T08:29:24.270Z,44.37
2019-01-06T08:30:24.479Z,44.38
2019-01-06T08:31:24.417Z,44.4
2019-01-06T08:32:24.072Z,44.39
2019-01-06T08:33:25.155Z,44.42
2019-01-06T08:34:24.292Z,44.39
2019-01-06T08:35:24.426Z,44.36
2019-01-06T08:36:24.246Z,44.46
2019-01-06T08:37:24.137Z,44.4
2019-01-06T08:38:24.270Z,44.4
2019-01-06T08:39:24.589Z,44.38
2019-01-06T08:40:24.387Z,44.38
2019-01-06T08:41:24.500Z,44.41
2019-01-06T08:42:24.592Z,44.37
2019-01-06T08:43:24.227Z,44.4
2019-01-06T08:44:24.000Z,44.35
2019-01-06T08:45:24.499Z,44.35
2019-01-06T08:46:24.761Z,44.44
2019-01-06T08:47:24.276Z,44.39
2019-01-06T08:48:24.464Z,44.39
2019-01-06T08:49:24.420Z,44.38
2019-01-06T08:50:24.087Z,44.38
2019-01-06T08:51:24.559Z,44.38
2019-01-06T08:52:24.532Z,44.4
2019-01-06T08:53:24.261Z,44.32
2019-01-06T08:54:23.972Z,44.38
2019-01-06T08:55:24.579Z,44.35
2019-01-06T08:56:24.375Z,44.35
2019-01-06T08:57:24.380Z,44.33
2019-01-06T08:58:24.228Z,44.35
2019-01-06T08:59:24.085Z,44.36
2019-01-06T09:00:24.239Z,44.35
2019-01-06T09:01:24.154Z,44.33
2019-01-06T09:02:24.147Z,44.36
2019-01-06T09:03:24.547Z,44.36
2019-01-06T09:04:24.318Z,44.35
2019-01-06T09:05:24.192Z,44.37
2019-01-06T09:06:24.342Z,44.32
2019-01-06T09:07:24.183Z,44.32
2019-01-06T09:08:24.595Z,44.32
2019-01-06T09:09:24.513Z,44.34
2019-01-06T09:10:24.276Z,44.32
2019-01-06T09:11:24.404Z,44.32
2019-01-06T09:12:25.107Z,44.33
2019-01-06T09:13:24.614Z,44.32
2019-01-06T09:14:24.284Z,44.33
2019-01-06T09:15:24.179Z,44.32
2019-01-06T09:16:24.220Z,44.32
2019-01-06T09:17:24.497Z,44.29
2019-01-06T09:18:24.248Z,44.31
2019-01-06T09:19:24.140Z,44.33
2019-01-06T09:20:24.203Z,44.32
2019-01-06T09:21:25.020Z,44.31
2019-01-06T09:22:24.417Z,44.34
2019-01-06T09:23:24.052Z,44.32
2019-01-06T09:24:24.102Z,44.31
2019-01-06T09:25:24.005Z,44.31
2019-01-06T09:26:24.474Z,44.33
2019-01-06T09:27:24.293Z,44.3
2019-01-06T09:28:24.190Z,44.3
2019-01-06T09:29:24.311Z,44.3
2019-01-06T09:30:24.990Z,44.33
2019-01-06T09:31:24.304Z,44.31
2019-01-06T09:32:23.964Z,44.29
2019-01-06T09:33:24.517Z,44.26
2019-01-06T09:34:24.756Z,44.31
2019-01-06T09:35:24.115Z,44.32
2019-01-06T09:36:24.561Z,44.29
2019-01-06T09:37:24.220Z,44.29
2019-01-06T09:38:24.535Z,44.29
2019-01-06T09:39:24.481Z,44.27
2019-01-06T09:40:24.418Z,44.28
2019-01-06T09:41:24.151Z,44.3
2019-01-06T09:42:24.998Z,44.3
2019-01-06T09:43:24.296Z,44.28
2019-01-06T09:44:24.032Z,44.27
2019-01-06T09:45:24.473Z,44.23
2019-01-06T09:46:24.531Z,44.29
2019-01-06T09:47:24.326Z,44.27
2019-01-06T09:48:24.194Z,44.27
2019-01-06T09:49:24.230Z,44.26
2019-01-06T09:50:24.255Z,44.27
2019-01-06T09:51:24.205Z,44.26
2019-01-06T09:52:24.087Z,44.26
2019-01-06T09:53:24.154Z,44.22
2019-01-06T09:54:24.487Z,44.21
2019-01-06T09:55:24.050Z,44.18
2019-01-06T09:56:24.413Z,44.18
2019-01-06T09:57:24.105Z,44.16
2019-01-06T09:58:24.145Z,44.2
2019-01-06T09:59:24.207Z,44.16
2019-01-06T10:00:24.274Z,44.2
2019-01-06T10:01:24.113Z,44.18
2019-01-06T10:02:24.419Z,44.2
2019-01-06T10:03:24.284Z,44.2
2019-01-06T10:04:23.953Z,44.16
2019-01-06T10:05:24.178Z,44.17
2019-01-06T10:06:24.579Z,44.18
2019-01-06T10:07:24.387Z,44.17
2019-01-06T10:08:24.305Z,44.16
2019-01-06T10:09:23.939Z,44.13
2019-01-06T10:10:24.942Z,44.18
2019-01-06T10:11:23.955Z,44.15
2019-01-06T10:12:24.022Z,44.18
2019-01-06T10:13:24.188Z,44.17
2019-01-06T10:14:24.098Z,44.17
2019-01-06T10:15:24.474Z,44.17
2019-01-06T10:16:24.059Z,44.12
2019-01-06T10:17:24.117Z,44.16
2019-01-06T10:18:24.405Z,44.15
2019-01-06T10:19:24.022Z,44.12
2019-01-06T10:20:24.245Z,44.13
2019-01-06T10:21:24.354Z,44.14
2019-01-06T10:22:24.522Z,44.11
2019-01-06T10:23:24.290Z,44.12
2019-01-06T10:24:24.773Z,44.14
2019-01-06T10:25:24.160Z,44.14
2019-01-06T10:26:23.971Z,44.1
2019-01-06T10:27:24.531Z,44.12
2019-01-06T10:28:24.418Z,44.12
2019-01-06T10:29:24.713Z,44.14
2019-01-06T10:30:24.224Z,44.13
2019-01-06T10:31:26.840Z,44.17
2019-01-06T10:32:24.640Z,44.14
2019-01-06T10:33:24.139Z,44.12
2019-01-06T10:34:24.129Z,44.15
2019-01-06T10:35:24.425Z,44.09
2019-01-06T10:36:24.463Z,44.11
2019-01-06T10:37:24.131Z,44.17
2019-01-06T10:38:24.505Z,44.21
2019-01-06T10:39:25.382Z,44.3
2019-01-06T10:40:24.816Z,44.57
2019-01-06T10:41:24.982Z,44.54
2019-01-06T10:42:24.086Z,44.66
2019-01-06T10:43:23.932Z,44.6
2019-01-06T10:44:24.329Z,44.58
2019-01-06T10:45:25.055Z,44.83
2019-01-06T10:46:24.450Z,44.87
2019-01-06T10:47:24.058Z,45.04
2019-01-06T10:48:24.274Z,44.99
2019-01-06T10:49:24.632Z,44.68
2019-01-06T10:50:24.285Z,44.24
2019-01-06T10:51:24.740Z,44.12
2019-01-06T10:52:24.043Z,44.14
2019-01-06T10:53:24.898Z,44.49
2019-01-06T10:54:24.226Z,44.53
2019-01-06T10:55:24.123Z,44.6
2019-01-06T10:56:24.144Z,44.71
2019-01-06T10:57:24.679Z,44.61
2019-01-06T10:58:24.402Z,44.75
2019-01-06T10:59:24.116Z,44.64
2019-01-06T11:00:24.482Z,44.55
2019-01-06T11:01:25.006Z,44.56
2019-01-06T11:02:26.070Z,44.72
2019-01-06T11:03:24.947Z,44.79
2019-01-06T11:04:25.016Z,44.64
2019-01-06T11:05:25.277Z,44.57
2019-01-06T11:06:26.294Z,44.58
2019-01-06T11:07:24.352Z,44.72
2019-01-06T11:08:25.076Z,44.73
2019-01-06T11:09:24.846Z,44.55
2019-01-06T11:10:25.071Z,44.85
2019-01-06T11:11:25.307Z,44.48
2019-01-06T11:12:26.101Z,44.5
2019-01-06T11:13:25.574Z,44.65
2019-01-06T11:14:25.973Z,44.53
2019-01-06T11:15:24.476Z,44.79
2019-01-06T11:16:25.746Z,44.94
2019-01-06T11:17:25.301Z,44.57
2019-01-06T11:18:24.375Z,45.05
2019-01-06T11:19:25.181Z,44.8
2019-01-06T11:20:26.414Z,44.37
2019-01-06T11:21:25.760Z,44.53
2019-01-06T11:22:26.031Z,44.7
2019-01-06T11:23:24.840Z,44.68
2019-01-06T11:24:25.731Z,45
2019-01-06T11:25:25.201Z,44.79
2019-01-06T11:26:26.004Z,45.2
2019-01-06T11:27:27.411Z,44.76
2019-01-06T11:28:25.527Z,45.06
2019-01-06T11:29:25.861Z,45.07
2019-01-06T11:30:25.225Z,45
2019-01-06T11:31:26.628Z,45.07
2019-01-06T11:32:24.928Z,44.96
2019-01-06T11:33:25.372Z,44.78
2019-01-06T11:34:27.195Z,44.85
2019-01-06T11:35:25.988Z,45.01
2019-01-06T11:36:25.128Z,44.94
2019-01-06T11:37:25.835Z,44.72
2019-01-06T11:38:25.652Z,44.98
2019-01-06T11:39:24.605Z,45.13
2019-01-06T11:40:25.779Z,45.16
2019-01-06T11:41:24.704Z,44.73
2019-01-06T11:42:25.736Z,44.82
2019-01-06T11:43:25.562Z,45.06
2019-01-06T11:44:24.564Z,45.06
2019-01-06T11:45:25.119Z,44.95
2019-01-06T11:46:25.100Z,44.94
2019-01-06T11:47:25.860Z,45.04
2019-01-06T11:48:24.529Z,44.7
2019-01-06T11:49:25.298Z,45.08
2019-01-06T11:50:24.363Z,45.39
2019-01-06T11:51:25.288Z,44.92
2019-01-06T11:52:25.556Z,45.39
2019-01-06T11:53:26.844Z,45.09
2019-01-06T11:54:25.717Z,45.18
2019-01-06T11:55:25.312Z,45.08
2019-01-06T11:56:25.744Z,45.86
2019-01-06T11:57:25.319Z,45.17
2019-01-06T11:58:25.271Z,45.03
2019-01-06T11:59:25.115Z,45
2019-01-06T12:00:25.028Z,45.39
2019-01-06T12:01:25.922Z,45.21
2019-01-06T12:02:25.902Z,44.84
2019-01-06T12:03:25.863Z,45.26
2019-01-06T12:04:23.995Z,45.03
2019-01-06T12:05:24.574Z,44.86
2019-01-06T12:06:24.238Z,44.72
2019-01-06T12:07:23.923Z,44.91
2019-01-06T12:08:24.273Z,44.73
2019-01-06T12:09:24.494Z,45.19
2019-01-06T12:10:24.029Z,44.68
2019-01-06T12:11:24.026Z,44.39
2019-01-06T12:12:24.497Z,44.19
2019-01-06T12:13:24.197Z,44.42
2019-01-06T12:14:24.028Z,43.92
2019-01-06T12:15:24.366Z,44.19
2019-01-06T12:16:24.206Z,43.84
2019-01-06T12:17:23.981Z,44.21
2019-01-06T12:18:24.250Z,43.69
2019-01-06T12:19:24.341Z,43.52
2019-01-06T12:20:24.197Z,43.67
2019-01-06T12:21:24.082Z,43.83
2019-01-06T12:22:24.277Z,43.95
2019-01-06T12:23:24.487Z,43.63
2019-01-06T12:24:24.018Z,43.58
2019-01-06T12:25:24.447Z,43.64
2019-01-06T12:26:24.325Z,43.97
2019-01-06T12:27:24.951Z,43.79
2019-01-06T12:28:25.076Z,43.89
2019-01-06T12:29:24.539Z,43.57
2019-01-06T12:30:24.457Z,43.58
2019-01-06T12:31:24.553Z,43.94
2019-01-06T12:32:23.940Z,44.12
2019-01-06T12:33:24.206Z,44.11
2019-01-06T12:34:24.755Z,44.03
2019-01-06T12:35:24.385Z,43.99
2019-01-06T12:36:24.135Z,44.16
2019-01-06T12:37:23.923Z,44.14
2019-01-06T12:38:25.097Z,44.07
2019-01-06T12:39:24.652Z,44.07
2019-01-06T12:40:24.511Z,44.05
2019-01-06T12:41:24.202Z,44.05
2019-01-06T12:42:23.981Z,43.99
2019-01-06T12:43:24.718Z,44.09
2019-01-06T12:44:24.006Z,44.09
2019-01-06T12:45:24.253Z,44.02
2019-01-06T12:46:23.974Z,44.15
2019-01-06T12:47:24.203Z,44.01
2019-01-06T12:48:24.282Z,43.98
2019-01-06T12:49:24.057Z,44.05
2019-01-06T12:50:23.973Z,44.03
2019-01-06T12:51:25.039Z,44.04
2019-01-06T12:52:24.073Z,44.09
2019-01-06T12:53:24.478Z,44.15
2019-01-06T12:54:23.917Z,44.04
2019-01-06T12:55:24.599Z,44.04